| time (UTC) | temp C | wind direction | speed KPH | gust KPH | rain 1hr cm | rain 24hr cm | rain mn cm | humidity % | barometer mb |
| 20260903233420 | 14 | 299 | 1.6 | 1.6 | 0.00 | 0.58 | 0.58 | 89 | 1010.9 |
| 20260903232920 | 14 | 306 | 0.0 | 0.0 | 0.00 | 0.58 | 0.58 | 89 | 1010.8 |
| 20260903232415 | 14 | 359 | 0.0 | 0.0 | 0.00 | 0.58 | 0.58 | 88 | 1010.9 |
| 20260903231915 | 14 | 358 | 1.6 | 1.6 | 0.00 | 0.58 | 0.58 | 88 | 1011.1 |
| 20260903231409 | 14 | 307 | 0.0 | 0.0 | 0.00 | 0.58 | 0.58 | 89 | 1011.1 |
| 20260903230904 | 14 | 307 | 0.0 | 1.6 | 0.00 | 0.58 | 0.58 | 88 | 1011.1 |
| 20260903230400 | 14 | 285 | 1.6 | 1.6 | 0.00 | 0.58 | 0.58 | 86 | 1011.4 |
| 20260903225856 | 14 | 308 | 1.6 | 1.6 | 0.00 | 0.58 | 0.58 | 85 | 1011.3 |
| 20260903225352 | 15 | 309 | 3.2 | 4.8 | 0.00 | 0.58 | 0.58 | 85 | 1011.2 |
| 20260903224848 | 15 | 322 | 4.8 | 4.8 | 0.00 | 0.58 | 0.58 | 84 | 1011.2 |
| 20260903224344 | 15 | 147 | 1.6 | 3.2 | 0.00 | 0.58 | 0.58 | 82 | 1011.3 |
| 20260903223839 | 15 | 297 | 4.8 | 4.8 | 0.00 | 0.58 | 0.58 | 80 | 1011.4 |
| 20260903223338 | 15 | 344 | 1.6 | 1.6 | 0.00 | 0.58 | 0.58 | 82 | 1011.2 |
| 20260903222833 | 16 | 278 | 6.4 | 11.3 | 0.00 | 0.58 | 0.58 | 79 | 1011.0 |
| 20260903222332 | 16 | 305 | 1.6 | 3.2 | 0.00 | 0.58 | 0.58 | 77 | 1010.9 |
| 20260903221827 | 16 | 299 | 4.8 | 8.0 | 0.00 | 0.58 | 0.58 | 77 | 1010.9 |
| 20260903221326 | 17 | 319 | 0.0 | 0.0 | 0.00 | 0.58 | 0.58 | 78 | 1011.1 |
| 20260903220824 | 16 | 297 | 0.0 | 0.0 | 0.00 | 0.58 | 0.58 | 80 | 1010.9 |
| 20260903220319 | 16 | 251 | 1.6 | 1.6 | 0.00 | 0.58 | 0.58 | 78 | 1010.9 |
| 20260903215817 | 16 | 303 | 0.0 | 0.0 | 0.00 | 0.58 | 0.58 | 79 | 1011.0 |
| 20260903215314 | 16 | 314 | 0.0 | 1.6 | 0.00 | 0.58 | 0.58 | 78 | 1010.7 |
| 20260903214811 | 16 | 312 | 0.0 | 0.0 | 0.00 | 0.58 | 0.58 | 78 | 1011.1 |
| 20260903214308 | 16 | 308 | 0.0 | 0.0 | 0.00 | 0.58 | 0.58 | 79 | 1011.0 |
| 20260903213802 | 16 | 344 | 0.0 | 1.6 | 0.00 | 0.58 | 0.58 | 79 | 1011.0 |
| 20260903213258 | 16 | 302 | 1.6 | 1.6 | 0.00 | 0.58 | 0.58 | 79 | 1011.1 |
| 20260903212753 | 16 | 291 | 1.6 | 1.6 | 0.00 | 0.58 | 0.58 | 78 | 1011.1 |
| 20260903212250 | 16 | 311 | 0.0 | 0.0 | 0.00 | 0.58 | 0.58 | 81 | 1011.3 |
| 20260903211743 | 16 | 316 | 0.0 | 1.6 | 0.00 | 0.58 | 0.58 | 81 | 1011.1 |
| 20260903211240 | 16 | 316 | 0.0 | 0.0 | 0.00 | 0.58 | 0.58 | 79 | 1011.4 |
| 20260903210736 | 16 | 316 | 0.0 | 0.0 | 0.00 | 0.58 | 0.58 | 80 | 1011.1 |
| 20260903210231 | 16 | 212 | 3.2 | 3.2 | 0.00 | 0.58 | 0.58 | 81 | 1011.2 |
| 20260903205730 | 16 | 296 | 1.6 | 1.6 | 0.00 | 0.58 | 0.58 | 83 | 1011.1 |
| 20260903205230 | 16 | 307 | 0.0 | 0.0 | 0.00 | 0.58 | 0.58 | 84 | 1011.0 |
| 20260903204725 | 16 | 299 | 1.6 | 3.2 | 0.00 | 0.58 | 0.58 | 82 | 1010.8 |
| 20260903204221 | 16 | 308 | 0.0 | 0.0 | 0.00 | 0.58 | 0.58 | 84 | 1011.0 |
| 20260903203717 | 16 | 290 | 3.2 | 4.8 | 0.00 | 0.58 | 0.58 | 84 | 1011.1 |
| 20260903203212 | 16 | 305 | 1.6 | 1.6 | 0.13 | 0.58 | 0.58 | 85 | 1011.0 |
| 20260903202706 | 16 | 298 | 1.6 | 1.6 | 0.13 | 0.58 | 0.58 | 85 | 1011.0 |
| 20260903202202 | 16 | 277 | 1.6 | 1.6 | 0.13 | 0.58 | 0.58 | 85 | 1010.8 |
| 20260903201701 | 16 | 318 | 0.0 | 0.0 | 0.00 | 0.56 | 0.56 | 87 | 1011.0 |
| 20260903201156 | 16 | 318 | 0.0 | 0.0 | 0.00 | 0.56 | 0.56 | 87 | 1011.0 |
| 20260903200650 | 15 | 311 | 0.0 | 0.0 | 0.00 | 0.56 | 0.56 | 87 | 1011.2 |
| 20260903200146 | 16 | 314 | 0.0 | 1.6 | 0.00 | 0.56 | 0.56 | 86 | 1011.1 |
| 20260903195642 | 16 | 307 | 1.6 | 1.6 | 0.00 | 0.56 | 0.56 | 85 | 1011.1 |
| 20260903195138 | 16 | 290 | 3.2 | 3.2 | 0.00 | 0.56 | 0.56 | 83 | 1011.1 |
| 20260903194637 | 16 | 172 | 1.6 | 3.2 | 0.00 | 0.56 | 0.56 | 83 | 1011.2 |
| 20260903194137 | 16 | 342 | 3.2 | 3.2 | 0.00 | 0.56 | 0.56 | 84 | 1010.9 |
| 20260903193633 | 16 | 286 | 0.0 | 1.6 | 0.00 | 0.56 | 0.56 | 84 | 1010.9 |
| 20260903193129 | 16 | 186 | 3.2 | 3.2 | 0.00 | 0.56 | 0.56 | 84 | 1011.0 |
| 20260903192626 | 16 | 322 | 0.0 | 0.0 | 0.00 | 0.56 | 0.56 | 88 | 1011.2 |
| 20260903192120 | 16 | 325 | 0.0 | 0.0 | 0.00 | 0.56 | 0.56 | 89 | 1011.2 |
| 20260903191616 | 16 | 313 | 0.0 | 0.0 | 0.00 | 0.56 | 0.56 | 89 | 1011.3 |
| 20260903191111 | 15 | 286 | 1.6 | 1.6 | 0.00 | 0.56 | 0.56 | 91 | 1011.3 |
| 20260903190610 | 15 | 305 | 0.0 | 1.6 | 0.00 | 0.56 | 0.56 | 92 | 1011.4 |
| 20260903190105 | 15 | 298 | 0.0 | 1.6 | 0.00 | 0.56 | 0.56 | 93 | 1011.2 |
| 20260903185600 | 15 | 310 | 0.0 | 0.0 | 0.00 | 0.56 | 0.56 | 93 | 1011.5 |
| 20260903185056 | 14 | 269 | 1.6 | 3.2 | 0.00 | 0.56 | 0.56 | 93 | 1011.3 |
| 20260903184552 | 15 | 183 | 3.2 | 3.2 | 0.00 | 0.56 | 0.56 | 92 | 1011.3 |
| 20260903184047 | 15 | 312 | 0.0 | 0.0 | 0.00 | 0.56 | 0.56 | 93 | 1011.5 |
| 20260903183546 | 15 | 204 | 3.2 | 3.2 | 0.18 | 0.56 | 0.56 | 92 | 1011.3 |
| 20260903183041 | 15 | 314 | 0.0 | 1.6 | 0.18 | 0.56 | 0.56 | 92 | 1011.3 |
| 20260903182539 | 15 | 168 | 3.2 | 4.8 | 0.00 | 0.53 | 0.53 | 89 | 1011.3 |
| 20260903182036 | 15 | 314 | 1.6 | 1.6 | 0.00 | 0.53 | 0.53 | 89 | 1011.3 |
| 20260903181534 | 15 | 317 | 0.0 | 0.0 | 0.00 | 0.53 | 0.53 | 90 | 1011.4 |
| 20260903181034 | 16 | 299 | 1.6 | 1.6 | 0.00 | 0.53 | 0.53 | 90 | 1010.9 |
| 20260903180530 | 16 | 312 | 0.0 | 0.0 | 0.00 | 0.53 | 0.53 | 91 | 1011.0 |
| 20260903180029 | 16 | 304 | 1.6 | 1.6 | 0.00 | 0.53 | 0.53 | 90 | 1011.2 |
| 20260903175528 | 16 | 305 | 0.0 | 0.0 | 0.00 | 0.53 | 0.53 | 91 | 1011.0 |
| 20260903175028 | 16 | 307 | 0.0 | 0.0 | 0.00 | 0.53 | 0.53 | 89 | 1011.0 |
| 20260903174523 | 16 | 293 | 0.0 | 1.6 | 0.00 | 0.53 | 0.53 | 92 | 1010.9 |
| 20260903174018 | 15 | 299 | 0.0 | 0.0 | 0.00 | 0.53 | 0.53 | 94 | 1010.8 |
| 20260903173512 | 15 | 311 | 0.0 | 0.0 | 0.00 | 0.53 | 0.53 | 97 | 1010.8 |
| 20260903173009 | 15 | 318 | 0.0 | 0.0 | 0.00 | 0.53 | 0.53 | 98 | 1010.9 |
| 20260903172503 | 15 | 282 | 1.6 | 1.6 | 0.00 | 0.53 | 0.53 | 99 | 1010.8 |
| 20260903171959 | 14 | 23 | 1.6 | 1.6 | 0.00 | 0.53 | 0.53 | 99 | 1011.0 |
| 20260903171454 | 14 | 303 | 0.0 | 0.0 | 0.00 | 0.53 | 0.53 | 99 | 1011.1 |
| 20260903170948 | 14 | 303 | 0.0 | 0.0 | 0.00 | 0.53 | 0.53 | 99 | 1011.2 |
| 20260903170443 | 14 | 303 | 0.0 | 0.0 | 0.00 | 0.53 | 0.53 | 99 | 1011.2 |
| 20260903165942 | 13 | 303 | 0.0 | 0.0 | 0.00 | 0.53 | 0.53 | 99 | 1011.3 |
| 20260903165441 | 13 | 302 | 0.0 | 0.0 | 0.00 | 0.53 | 0.53 | 99 | 1011.3 |
| 20260903164937 | 13 | 319 | 0.0 | 0.0 | 0.00 | 0.53 | 0.53 | 99 | 1011.2 |
| 20260903164432 | 13 | 301 | 0.0 | 0.0 | 0.00 | 0.53 | 0.53 | 99 | 1011.4 |
| 20260903163931 | 13 | 333 | 0.0 | 1.6 | 0.00 | 0.53 | 0.53 | 99 | 1011.4 |
| 20260903163427 | 14 | 321 | 0.0 | 0.0 | 0.00 | 0.53 | 0.53 | 99 | 1011.3 |
| 20260903162923 | 14 | 321 | 0.0 | 0.0 | 0.00 | 0.53 | 0.53 | 99 | 1011.4 |
| 20260903162420 | 13 | 319 | 0.0 | 0.0 | 0.00 | 0.53 | 0.53 | 99 | 1011.4 |
| 20260903161915 | 13 | 318 | 0.0 | 0.0 | 0.00 | 0.53 | 0.53 | 99 | 1011.4 |
| 20260903161410 | 13 | 318 | 0.0 | 0.0 | 0.00 | 0.53 | 0.53 | 99 | 1011.2 |
| 20260903160906 | 12 | 317 | 0.0 | 0.0 | 0.00 | 0.53 | 0.53 | 99 | 1011.2 |
| 20260903160405 | 12 | 317 | 0.0 | 0.0 | 0.00 | 0.53 | 0.53 | 99 | 1011.2 |
| 20260903155904 | 12 | 321 | 0.0 | 0.0 | 0.00 | 0.53 | 0.53 | 99 | 1011.4 |
| 20260903155359 | 12 | 321 | 0.0 | 0.0 | 0.13 | 0.53 | 0.53 | 99 | 1011.3 |
| 20260903154855 | 12 | 327 | 0.0 | 0.0 | 0.61 | 0.53 | 0.53 | 99 | 1011.2 |
| 20260903154351 | 12 | 326 | 0.0 | 0.0 | 0.66 | 0.51 | 0.51 | 99 | 1011.7 |
| 20260903153851 | 12 | 298 | 0.0 | 0.0 | 0.30 | 0.43 | 0.43 | 99 | 1011.3 |
| 20260903153346 | 12 | 300 | 0.0 | 0.0 | 0.30 | 0.41 | 0.41 | 99 | 1011.6 |
| 20260903152843 | 12 | 300 | 0.0 | 1.6 | 0.18 | 0.38 | 0.38 | 99 | 1011.5 |
| 20260903152338 | 12 | 301 | 0.0 | 0.0 | 0.18 | 0.38 | 0.38 | 99 | 1011.4 |
| 20260903151833 | 12 | 316 | 0.0 | 0.0 | 0.00 | 0.36 | 0.36 | 99 | 1011.5 |
| 20260903151329 | 12 | 319 | 0.0 | 0.0 | 0.13 | 0.36 | 0.36 | 99 | 1011.3 |
| 20260903150828 | 12 | 305 | 0.0 | 0.0 | 0.13 | 0.36 | 0.36 | 99 | 1011.4 |
| 20260903150324 | 12 | 294 | 0.0 | 0.0 | 0.00 | 0.33 | 0.33 | 99 | 1011.3 |
| 20260903145818 | 12 | 303 | 0.0 | 0.0 | 0.18 | 0.33 | 0.33 | 99 | 1011.2 |
| 20260903145313 | 12 | 308 | 0.0 | 0.0 | 0.18 | 0.33 | 0.33 | 99 | 1011.1 |
| 20260903144813 | 12 | 322 | 0.0 | 1.6 | 0.00 | 0.30 | 0.30 | 99 | 1011.2 |
| 20260903144308 | 12 | 295 | 0.0 | 0.0 | 0.13 | 0.30 | 0.30 | 99 | 1011.1 |
| 20260903143803 | 12 | 314 | 0.0 | 0.0 | 0.13 | 0.30 | 0.30 | 99 | 1011.3 |
| 20260903143300 | 12 | 323 | 0.0 | 0.0 | 0.00 | 0.28 | 0.28 | 99 | 1011.4 |
| 20260903142755 | 12 | 300 | 0.0 | 1.6 | 0.18 | 0.28 | 0.28 | 99 | 1011.4 |
| 20260903142251 | 12 | 302 | 0.0 | 0.0 | 0.18 | 0.28 | 0.28 | 99 | 1011.1 |
| 20260903141747 | 12 | 72 | 1.6 | 3.2 | 0.13 | 0.25 | 0.25 | 99 | 1010.9 |
| 20260903141242 | 11 | 312 | 0.0 | 0.0 | 0.13 | 0.25 | 0.25 | 99 | 1010.8 |
| 20260903140737 | 11 | 313 | 0.0 | 0.0 | 0.00 | 0.23 | 0.23 | 99 | 1010.9 |
| 20260903140232 | 11 | 313 | 0.0 | 0.0 | 0.00 | 0.23 | 0.23 | 99 | 1010.8 |
| 20260903135728 | 11 | 313 | 0.0 | 0.0 | 0.00 | 0.23 | 0.23 | 99 | 1010.8 |
| 20260903135223 | 11 | 313 | 0.0 | 0.0 | 0.00 | 0.23 | 0.23 | 99 | 1010.8 |
| 20260903134721 | 11 | 313 | 0.0 | 0.0 | 0.18 | 0.23 | 0.23 | 99 | 1010.8 |
| 20260903134218 | 11 | 313 | 0.0 | 0.0 | 0.18 | 0.23 | 0.23 | 99 | 1010.6 |
| 20260903133715 | 11 | 310 | 0.0 | 0.0 | 0.30 | 0.23 | 0.23 | 99 | 1010.6 |
| 20260903133212 | 11 | 310 | 0.0 | 0.0 | 0.30 | 0.20 | 0.20 | 99 | 1010.7 |
| 20260903132711 | 11 | 302 | 0.0 | 0.0 | 0.36 | 0.18 | 0.18 | 99 | 1010.6 |
| 20260903132206 | 11 | 301 | 0.0 | 0.0 | 0.18 | 0.15 | 0.15 | 99 | 1010.6 |
| 20260903131701 | 11 | 301 | 0.0 | 0.0 | 0.00 | 0.13 | 0.13 | 99 | 1010.4 |
| 20260903131201 | 11 | 301 | 0.0 | 0.0 | 0.13 | 0.13 | 0.13 | 99 | 1010.5 |
| 20260903130656 | 11 | 212 | 3.2 | 3.2 | 0.13 | 0.13 | 0.13 | 99 | 1010.4 |
| 20260903130150 | 11 | 316 | 0.0 | 0.0 | 0.00 | 0.10 | 0.10 | 99 | 1010.6 |
| 20260903125648 | 11 | 315 | 0.0 | 0.0 | 0.00 | 0.10 | 0.10 | 99 | 1010.5 |
| 20260903125144 | 11 | 313 | 0.0 | 0.0 | 0.00 | 0.10 | 0.10 | 99 | 1010.4 |
| 20260903124638 | 11 | 296 | 0.0 | 0.0 | 0.00 | 0.10 | 0.10 | 99 | 1010.5 |
| 20260903124137 | 11 | 297 | 0.0 | 0.0 | 0.00 | 0.10 | 0.10 | 99 | 1010.6 |
| 20260903123637 | 11 | 302 | 0.0 | 0.0 | 0.00 | 0.10 | 0.10 | 99 | 1010.4 |
| 20260903123136 | 11 | 307 | 0.0 | 0.0 | 0.00 | 0.10 | 0.10 | 99 | 1010.6 |
| 20260903122631 | 11 | 318 | 0.0 | 0.0 | 0.00 | 0.10 | 0.10 | 99 | 1010.6 |
| 20260903122130 | 11 | 310 | 0.0 | 0.0 | 0.00 | 0.10 | 0.10 | 99 | 1010.6 |
| 20260903121629 | 11 | 317 | 0.0 | 0.0 | 0.00 | 0.10 | 0.10 | 99 | 1010.5 |
| 20260903121126 | 11 | 317 | 0.0 | 0.0 | 0.00 | 0.10 | 0.10 | 99 | 1010.4 |
| 20260903120624 | 11 | 306 | 0.0 | 0.0 | 0.00 | 0.10 | 0.10 | 99 | 1010.5 |
| 20260903120119 | 11 | 307 | 0.0 | 0.0 | 0.00 | 0.10 | 0.10 | 99 | 1010.6 |
| 20260903115617 | 11 | 307 | 0.0 | 0.0 | 0.00 | 0.10 | 0.10 | 99 | 1010.7 |
| 20260903115113 | 11 | 295 | 0.0 | 1.6 | 0.00 | 0.10 | 0.10 | 99 | 1010.9 |
| 20260903114608 | 11 | 295 | 0.0 | 0.0 | 0.00 | 0.10 | 0.10 | 99 | 1010.6 |
| 20260903114103 | 11 | 296 | 0.0 | 0.0 | 0.00 | 0.10 | 0.10 | 99 | 1010.7 |
| 20260903113559 | 11 | 296 | 0.0 | 0.0 | 0.00 | 0.10 | 0.10 | 99 | 1010.7 |
| 20260903113055 | 11 | 296 | 0.0 | 1.6 | 0.00 | 0.10 | 0.10 | 99 | 1010.6 |
| 20260903112551 | 11 | 297 | 0.0 | 0.0 | 0.00 | 0.10 | 0.10 | 99 | 1010.7 |
| 20260903112050 | 11 | 299 | 0.0 | 0.0 | 0.00 | 0.10 | 0.10 | 99 | 1010.8 |
| 20260903111549 | 11 | 304 | 0.0 | 0.0 | 0.00 | 0.10 | 0.10 | 99 | 1010.7 |
| 20260903111045 | 11 | 304 | 0.0 | 0.0 | 0.00 | 0.10 | 0.10 | 99 | 1010.6 |
| 20260903110541 | 11 | 305 | 0.0 | 0.0 | 0.00 | 0.10 | 0.10 | 99 | 1010.9 |
| 20260903110036 | 11 | 299 | 0.0 | 0.0 | 0.00 | 0.10 | 0.10 | 99 | 1010.8 |
| 20260903105531 | 11 | 305 | 0.0 | 0.0 | 0.00 | 0.10 | 0.10 | 99 | 1010.7 |
| 20260903105025 | 11 | 307 | 0.0 | 0.0 | 0.00 | 0.10 | 0.10 | 99 | 1010.8 |
| 20260903104520 | 11 | 284 | 1.6 | 1.6 | 0.00 | 0.10 | 0.10 | 99 | 1010.8 |
| 20260903104016 | 11 | 305 | 0.0 | 0.0 | 0.00 | 0.10 | 0.10 | 99 | 1010.7 |
| 20260903103512 | 11 | 305 | 0.0 | 0.0 | 0.00 | 0.10 | 0.10 | 99 | 1010.8 |
| 20260903103008 | 12 | 301 | 1.6 | 1.6 | 0.00 | 0.10 | 0.10 | 99 | 1011.0 |
| 20260903102503 | 12 | 299 | 1.6 | 1.6 | 0.00 | 0.10 | 0.10 | 99 | 1010.9 |
| 20260903102002 | 12 | 286 | 1.6 | 1.6 | 0.00 | 0.10 | 0.10 | 99 | 1010.7 |
| 20260903101456 | 12 | 300 | 0.0 | 0.0 | 0.00 | 0.10 | 0.10 | 99 | 1010.6 |
| 20260903100952 | 12 | 303 | 0.0 | 0.0 | 0.00 | 0.10 | 0.10 | 99 | 1010.4 |
| 20260903100447 | 12 | 307 | 0.0 | 0.0 | 0.00 | 0.10 | 0.10 | 99 | 1010.5 |
| 20260903095943 | 12 | 318 | 0.0 | 0.0 | 0.18 | 0.10 | 0.10 | 99 | 1010.5 |
| 20260903095438 | 12 | 306 | 0.0 | 0.0 | 0.18 | 0.10 | 0.10 | 99 | 1010.5 |
| 20260903094934 | 12 | 301 | 0.0 | 0.0 | 0.00 | 0.08 | 0.08 | 99 | 1010.6 |
| 20260903094432 | 12 | 242 | 1.6 | 1.6 | 0.00 | 0.08 | 0.08 | 99 | 1010.4 |
| 20260903093929 | 12 | 304 | 0.0 | 0.0 | 0.00 | 0.08 | 0.08 | 99 | 1010.2 |
| 20260903093424 | 12 | 276 | 1.6 | 3.2 | 0.00 | 0.08 | 0.08 | 99 | 1010.6 |
| 20260903092919 | 12 | 296 | 0.0 | 0.0 | 0.00 | 0.08 | 0.08 | 99 | 1010.6 |
| 20260903092414 | 12 | 291 | 0.0 | 0.0 | 0.00 | 0.08 | 0.08 | 99 | 1010.6 |
| 20260903091912 | 12 | 298 | 0.0 | 0.0 | 0.00 | 0.08 | 0.08 | 99 | 1010.4 |
| 20260903091411 | 12 | 295 | 0.0 | 0.0 | 0.00 | 0.08 | 0.08 | 99 | 1010.6 |
| 20260903090906 | 12 | 308 | 0.0 | 0.0 | 0.00 | 0.08 | 0.08 | 99 | 1010.7 |
| 20260903090402 | 12 | 307 | 0.0 | 0.0 | 0.00 | 0.08 | 0.08 | 99 | 1010.7 |
| 20260903085900 | 12 | 311 | 0.0 | 0.0 | 0.00 | 0.08 | 0.08 | 99 | 1010.6 |
| 20260903085359 | 12 | 302 | 0.0 | 0.0 | 0.00 | 0.08 | 0.08 | 99 | 1010.6 |
| 20260903084859 | 12 | 302 | 0.0 | 0.0 | 0.00 | 0.08 | 0.08 | 99 | 1011.0 |
| 20260903084357 | 12 | 303 | 0.0 | 0.0 | 0.00 | 0.08 | 0.08 | 99 | 1010.8 |
| 20260903083853 | 12 | 304 | 0.0 | 0.0 | 0.00 | 0.08 | 0.08 | 99 | 1010.7 |
| 20260903083349 | 12 | 303 | 0.0 | 0.0 | 0.00 | 0.08 | 0.08 | 99 | 1010.9 |
| 20260903082847 | 12 | 298 | 0.0 | 0.0 | 0.00 | 0.08 | 0.08 | 99 | 1010.9 |
| 20260903082342 | 12 | 301 | 0.0 | 0.0 | 0.13 | 0.08 | 0.08 | 99 | 1010.8 |
| 20260903081838 | 12 | 295 | 1.6 | 1.6 | 0.13 | 0.08 | 0.08 | 99 | 1010.9 |
| 20260903081333 | 12 | 304 | 0.0 | 0.0 | 0.00 | 0.05 | 0.05 | 99 | 1011.0 |
| 20260903080830 | 12 | 305 | 0.0 | 0.0 | 0.00 | 0.05 | 0.05 | 99 | 1011.0 |
| 20260903080327 | 12 | 306 | 0.0 | 0.0 | 0.00 | 0.05 | 0.05 | 99 | 1011.0 |
| 20260903075826 | 12 | 307 | 0.0 | 0.0 | 0.00 | 0.05 | 0.05 | 99 | 1011.3 |
| 20260903075321 | 12 | 330 | 0.0 | 0.0 | 0.00 | 0.05 | 0.05 | 99 | 1010.9 |
| 20260903074821 | 12 | 304 | 0.0 | 0.0 | 0.00 | 0.05 | 0.05 | 99 | 1010.8 |
| 20260903074315 | 12 | 291 | 1.6 | 1.6 | 0.18 | 0.05 | 0.05 | 99 | 1011.0 |
| 20260903073811 | 12 | 306 | 0.0 | 0.0 | 0.30 | 0.05 | 0.05 | 99 | 1011.0 |
| 20260903073306 | 12 | 304 | 0.0 | 0.0 | 0.13 | 0.03 | 0.03 | 99 | 1011.0 |
| 20260903072802 | 12 | 303 | 0.0 | 1.6 | 0.00 | 0.00 | 0.00 | 99 | 1010.8 |
| 20260903072258 | 12 | 303 | 0.0 | 0.0 | 0.00 | 0.00 | 0.00 | 99 | 1011.0 |
| 20260903071754 | 12 | 297 | 1.6 | 1.6 | 0.00 | 0.00 | 0.00 | 99 | 1010.9 |
| 20260903071250 | 12 | 199 | 1.6 | 1.6 | 0.00 | 0.00 | 0.00 | 99 | 1010.9 |
| 20260903070744 | 12 | 309 | 0.0 | 0.0 | 0.00 | 0.00 | 0.00 | 99 | 1010.7 |
| 20260903070240 | 12 | 298 | 0.0 | 0.0 | 0.00 | 0.00 | 0.00 | 99 | 1010.8 |
| 20260903065735 | 12 | 284 | 0.0 | 1.6 | 0.00 | 0.94 | 0.94 | 99 | 1010.9 |
| 20260903065234 | 12 | 304 | 0.0 | 0.0 | 0.00 | 0.94 | 0.94 | 99 | 1010.6 |
| 20260903064733 | 12 | 294 | 0.0 | 1.6 | 0.00 | 0.94 | 0.94 | 99 | 1010.7 |
| 20260903064228 | 12 | 299 | 0.0 | 0.0 | 0.00 | 0.94 | 0.94 | 99 | 1010.8 |
| 20260903063725 | 12 | 272 | 1.6 | 1.6 | 0.00 | 0.94 | 0.94 | 99 | 1010.7 |
| 20260903063219 | 12 | 306 | 0.0 | 0.0 | 0.00 | 0.94 | 0.94 | 99 | 1010.7 |
| 20260903062715 | 12 | 309 | 0.0 | 0.0 | 0.00 | 0.94 | 0.94 | 99 | 1010.8 |
| 20260903062215 | 12 | 313 | 0.0 | 0.0 | 0.00 | 0.94 | 0.94 | 99 | 1010.8 |
| 20260903061712 | 12 | 305 | 0.0 | 0.0 | 0.00 | 0.94 | 0.94 | 99 | 1011.0 |
| 20260903061209 | 12 | 307 | 0.0 | 0.0 | 0.00 | 0.94 | 0.94 | 99 | 1010.8 |
| 20260903060706 | 12 | 304 | 0.0 | 0.0 | 0.00 | 0.94 | 0.94 | 99 | 1010.9 |
| 20260903060200 | 12 | 302 | 0.0 | 0.0 | 0.00 | 0.94 | 0.94 | 99 | 1010.8 |
| 20260903055658 | 12 | 238 | 0.0 | 1.6 | 0.00 | 0.94 | 0.94 | 99 | 1010.6 |
| 20260903055156 | 12 | 298 | 0.0 | 1.6 | 0.00 | 0.94 | 0.94 | 99 | 1010.7 |
| 20260903054651 | 12 | 266 | 0.0 | 1.6 | 0.00 | 0.94 | 0.94 | 99 | 1010.7 |
| 20260903054147 | 12 | 300 | 0.0 | 0.0 | 0.00 | 0.94 | 0.94 | 99 | 1010.8 |
| 20260903053643 | 13 | 262 | 1.6 | 1.6 | 0.00 | 0.94 | 0.94 | 99 | 1011.0 |
| 20260903053138 | 13 | 308 | 0.0 | 0.0 | 0.00 | 0.94 | 0.94 | 99 | 1010.9 |
| 20260903052634 | 13 | 300 | 0.0 | 0.0 | 0.00 | 0.94 | 0.94 | 99 | 1010.7 |
| 20260903052129 | 13 | 301 | 0.0 | 0.0 | 0.00 | 0.94 | 0.94 | 99 | 1011.0 |
| 20260903051624 | 13 | 301 | 0.0 | 0.0 | 0.00 | 0.94 | 0.94 | 99 | 1010.8 |
| 20260903051120 | 13 | 309 | 0.0 | 0.0 | 0.00 | 0.94 | 0.94 | 99 | 1010.7 |
| 20260903050620 | 13 | 291 | 0.0 | 0.0 | 0.00 | 0.94 | 0.94 | 99 | 1010.8 |
| 20260903050115 | 12 | 234 | 0.0 | 1.6 | 0.00 | 0.94 | 0.94 | 99 | 1010.7 |
| 20260903045614 | 12 | 306 | 0.0 | 0.0 | 0.00 | 0.94 | 0.94 | 99 | 1010.7 |
| 20260903045110 | 12 | 306 | 0.0 | 0.0 | 0.00 | 0.94 | 0.94 | 99 | 1010.8 |
| 20260903044606 | 12 | 300 | 0.0 | 0.0 | 0.00 | 0.94 | 0.94 | 99 | 1010.8 |
| 20260903044102 | 13 | 302 | 0.0 | 0.0 | 0.00 | 0.94 | 0.94 | 99 | 1010.6 |
| 20260903043557 | 13 | 301 | 0.0 | 0.0 | 0.00 | 0.94 | 0.94 | 99 | 1010.7 |
| 20260903043057 | 13 | 304 | 0.0 | 0.0 | 0.00 | 0.94 | 0.94 | 99 | 1010.8 |
| 20260903042551 | 13 | 311 | 0.0 | 0.0 | 0.00 | 0.94 | 0.94 | 99 | 1010.6 |
| 20260903042047 | 13 | 310 | 0.0 | 0.0 | 0.00 | 0.94 | 0.94 | 99 | 1010.4 |
| 20260903041544 | 13 | 300 | 0.0 | 0.0 | 0.00 | 0.94 | 0.94 | 99 | 1010.4 |
| 20260903041038 | 13 | 320 | 0.0 | 0.0 | 0.00 | 0.94 | 0.94 | 99 | 1010.4 |
| 20260903040537 | 13 | 322 | 0.0 | 0.0 | 0.00 | 0.94 | 0.94 | 99 | 1010.3 |
| 20260903040034 | 13 | 302 | 0.0 | 0.0 | 0.00 | 0.94 | 0.94 | 99 | 1010.2 |
| 20260903035529 | 13 | 303 | 0.0 | 0.0 | 0.00 | 0.94 | 0.94 | 99 | 1010.3 |
| 20260903035025 | 13 | 303 | 0.0 | 0.0 | 0.00 | 0.94 | 0.94 | 99 | 1010.1 |
| 20260903034525 | 13 | 304 | 0.0 | 0.0 | 0.00 | 0.94 | 0.94 | 99 | 1009.9 |
| 20260903034020 | 13 | 304 | 0.0 | 0.0 | 0.00 | 0.94 | 0.94 | 99 | 1009.7 |
| 20260903033515 | 13 | 318 | 0.0 | 0.0 | 0.00 | 0.94 | 0.94 | 99 | 1009.7 |
| 20260903033011 | 13 | 307 | 0.0 | 0.0 | 0.00 | 0.94 | 0.94 | 99 | 1009.9 |
| 20260903032506 | 13 | 315 | 0.0 | 0.0 | 0.00 | 0.94 | 0.94 | 99 | 1009.8 |
| 20260903032001 | 14 | 310 | 0.0 | 0.0 | 0.00 | 0.94 | 0.94 | 99 | 1009.6 |
| 20260903031501 | 14 | 293 | 0.0 | 1.6 | 0.00 | 0.94 | 0.94 | 99 | 1009.6 |
| 20260903030956 | 14 | 307 | 0.0 | 0.0 | 0.00 | 0.94 | 0.94 | 99 | 1009.5 |
| 20260903030452 | 14 | 300 | 0.0 | 0.0 | 0.18 | 0.94 | 0.94 | 99 | 1009.5 |
| 20260903025947 | 14 | 225 | 1.6 | 3.2 | 0.18 | 0.94 | 0.94 | 99 | 1009.7 |
| 20260903025443 | 14 | 301 | 0.0 | 0.0 | 0.00 | 0.91 | 0.91 | 99 | 1009.6 |
| 20260903024938 | 14 | 301 | 1.6 | 1.6 | 0.00 | 0.91 | 0.91 | 99 | 1009.7 |
| 20260903024437 | 14 | 301 | 0.0 | 0.0 | 0.00 | 0.91 | 0.91 | 99 | 1009.4 |
| 20260903023932 | 15 | 305 | 0.0 | 0.0 | 0.00 | 0.91 | 0.91 | 99 | 1009.2 |
| 20260903023428 | 15 | 297 | 0.0 | 0.0 | 0.00 | 0.91 | 0.91 | 99 | 1009.1 |
| 20260903022923 | 15 | 268 | 1.6 | 3.2 | 0.00 | 0.91 | 0.91 | 99 | 1009.1 |
| 20260903022422 | 15 | 287 | 0.0 | 0.0 | 0.00 | 0.91 | 0.91 | 99 | 1009.2 |
| 20260903021920 | 15 | 291 | 0.0 | 1.6 | 0.00 | 0.91 | 0.91 | 99 | 1009.2 |
| 20260903021417 | 15 | 285 | 0.0 | 0.0 | 0.00 | 0.91 | 0.91 | 99 | 1009.3 |
| 20260903020916 | 15 | 281 | 1.6 | 1.6 | 0.00 | 0.91 | 0.91 | 99 | 1009.1 |
| 20260903020412 | 15 | 310 | 0.0 | 1.6 | 0.13 | 0.91 | 0.91 | 99 | 1009.1 |
| 20260903015907 | 15 | 302 | 0.0 | 0.0 | 0.13 | 0.91 | 0.91 | 99 | 1008.8 |
| 20260903015403 | 15 | 288 | 1.6 | 1.6 | 0.00 | 0.89 | 0.89 | 99 | 1008.9 |
| 20260903014858 | 15 | 287 | 0.0 | 0.0 | 0.00 | 0.89 | 0.89 | 99 | 1008.7 |
| 20260903014357 | 15 | 280 | 1.6 | 1.6 | 0.00 | 0.89 | 0.89 | 99 | 1008.8 |
| 20260903013852 | 15 | 300 | 0.0 | 0.0 | 0.00 | 0.89 | 0.89 | 99 | 1008.9 |
| 20260903013352 | 15 | 287 | 1.6 | 1.6 | 0.00 | 0.89 | 0.89 | 99 | 1008.9 |
| 20260903012851 | 15 | 301 | 1.6 | 1.6 | 0.00 | 0.89 | 0.89 | 99 | 1008.9 |
| 20260903012351 | 15 | 297 | 0.0 | 1.6 | 0.00 | 0.89 | 0.89 | 99 | 1008.8 |
| 20260903011849 | 15 | 299 | 0.0 | 0.0 | 0.00 | 0.89 | 0.89 | 99 | 1008.6 |
| 20260903011344 | 15 | 284 | 0.0 | 0.0 | 0.00 | 0.89 | 0.89 | 99 | 1008.5 |
| 20260903010840 | 15 | 232 | 1.6 | 1.6 | 0.00 | 0.89 | 0.89 | 99 | 1008.8 |
| 20260903010335 | 15 | 302 | 0.0 | 0.0 | 0.00 | 0.89 | 0.89 | 99 | 1008.6 |
| 20260903005833 | 15 | 274 | 1.6 | 1.6 | 0.00 | 0.89 | 0.89 | 99 | 1008.7 |
| 20260903005329 | 15 | 326 | 0.0 | 0.0 | 0.00 | 0.89 | 0.89 | 99 | 1008.5 |
| 20260903004824 | 15 | 321 | 0.0 | 0.0 | 0.18 | 0.89 | 0.89 | 99 | 1008.5 |
| 20260903004320 | 15 | 290 | 0.0 | 1.6 | 0.18 | 0.89 | 0.89 | 99 | 1008.5 |
| 20260903003816 | 15 | 307 | 0.0 | 0.0 | 0.00 | 0.86 | 0.86 | 99 | 1008.5 |
| 20260903003310 | 15 | 297 | 1.6 | 1.6 | 0.13 | 0.86 | 0.86 | 99 | 1008.2 |
| 20260903002810 | 15 | 346 | 1.6 | 1.6 | 0.13 | 0.86 | 0.86 | 99 | 1008.3 |
| 20260903002309 | 15 | 309 | 0.0 | 0.0 | 0.13 | 0.86 | 0.86 | 99 | 1008.3 |
| 20260903001804 | 15 | 303 | 0.0 | 0.0 | 0.00 | 0.84 | 0.84 | 99 | 1008.6 |
| 20260903001259 | 15 | 304 | 0.0 | 0.0 | 0.00 | 0.84 | 0.84 | 99 | 1008.1 |
| 20260903000754 | 15 | 300 | 1.6 | 1.6 | 0.00 | 0.84 | 0.84 | 99 | 1008.2 |
| 20260903000249 | 15 | 294 | 0.0 | 1.6 | 0.00 | 0.84 | 0.84 | 99 | 1008.3 |
| 20260902235747 | 15 | 303 | 0.0 | 0.0 | 0.00 | 0.84 | 0.84 | 99 | 1008.3 |
| 20260902235243 | 15 | 318 | 0.0 | 0.0 | 0.00 | 0.84 | 0.84 | 99 | 1008.2 |
| 20260902234742 | 15 | 316 | 0.0 | 1.6 | 0.00 | 0.84 | 0.84 | 99 | 1008.2 |
| 20260902234242 | 15 | 301 | 0.0 | 0.0 | 0.00 | 0.84 | 0.84 | 99 | 1008.2 |
| 20260902233742 | 15 | 308 | 1.6 | 1.6 | 0.00 | 0.84 | 0.84 | 99 | 1008.3 |